Grand Forks Air Force Base, ND (58204)

4:38 PM CST on February 08, 2016 (GMT -0600)
Grand Forks Air Force Base | | Change Station
CLOSE
Current Station
Airport
Location: Grand Forks AFB,
Elevation: 912 ft
Nearby Weather Stations
Active Advisory: Winter Weather Advisory Active Notice: Local Storm Report

Elev 912 ft 47.96 °N, 97.40 °W | Updated 10 minutes ago

Freezing Rain
Freezing Rain
12 °F
Feels Like -6 °F
N
20
Wind Variable Wind from North
Gusts 26 mph

Today
High -- | Low -- °F
--% Chance of Precip.
Yesterday
High -- | Low -- °F
Precip. -- in
Pressure 30.22 in
Visibility 10.0 miles
Clouds Overcast 700 ft
Windchill -6 °F
Dew Point 5 °F
Humidity 73%
Rainfall 0.00 in
Snow Depth Not available.
7:47 AM 5:40 PM
New Moon, 0% visible
SPECI KRDR 082228Z AUTO 01017G23KT 10SM -DZ OVC007 M11/M15 A3022 RMK AO2 SNB05E20DZB28
Pressure 30.22 in
Visibility 10.0 miles
Clouds Overcast 700 ft
Windchill -6 °F
Dew Point 5 °F
Humidity 73%
Rainfall 0.00 in
Snow Depth Not available.
7:47 AM 5:40 PM
New Moon, 0% visible
SPECI KRDR 082228Z AUTO 01017G23KT 10SM -DZ OVC007 M11/M15 A3022 RMK AO2 SNB05E20DZB28

10-Day Weather Forecast

Almanac

Astronomy

Feb. 08, 2016 Rise Set
Actual Time
Civil Twilight
Nautical Twilight
Astronomical Twilight
Moon
Length of Visible Light
Length of Day
Tomorrow will be .
, % of the Moon is Illuminated

Today's Extremes

State Highs State Lows

Community

WunderPhotos

Upload Photos

1,891,518 photos uploaded!

WunderBlog® & News

Nearby

Air Quality

  Air Quality AQ Index Pollutant
Not available.

Snow Depth

Station Depth Elevation

Earthquake Activity

City Distance Mag. Time & Date
Minimum magnitude displayed is 2.5.

Coastal Water Temperatures

Place Temperature

Stations

Nearby Weather Stations

Station Location Temp. Windchill Dew Point Humidity Wind Precip. Elev Updated Type
                   

Watches & Warnings

Winter Weather Advisory
Issued: 3:12 PM CST Feb. 8, 2016 – National Weather Service

... Winter Weather Advisory remains in effect until 6 PM CST this
evening...

* timing... expect snow showers and gusty winds to continue
through the afternoon.

* Winds / visibilities... winds gusting as high as 35 mph will
cause areas lower visibility to a mile or less with snow
showers.

* Impacts... plan on periodic low visibility affecting travel.

* Winds... northwest 20 to 25 mph with gusts up to 35 mph.

Precautionary/preparedness actions...

A Winter Weather Advisory means that visibilities will be limited
due to strong winds and bands of snow showers. Use caution when
traveling... especially in open areas.